Bayberry Point, New York
Current Conditions -  °F | °C
As of 3:56 AM on Wednesday 22 Oct 2014 (Local Time) from KISP Reporting Station
Broken Clouds Broken Clouds  
Wind Chill: 57°   Ceiling: 1000
Heat Index: 57°   Visibility: 10mi
Dew Point: 54°   Wind: 13mph
Humidity: 89%   Direction: 40°NE
Pressure: 29.85"   Gusts: NA
Location:  40.7426°N, 73.2171°W
Report Text: KISP 220756Z AUTO 04011KT 10SM BKN010 BKN021 BKN026 14/12 A2985 RMK AO2 LTG DSNT SW SLP107 T01390122
Loading
Personal Weather Stations






























Interactive Weather Map
Tropical Storm Tracking
New forecast layout! Learn more

10-Day Weather Forecast

Advertisements
Track Severe Weather on mobile